createdAt,value
2023-01-10T00:02:21.133Z,0.75
2023-01-10T00:05:23.500Z,0.70
2023-01-10T00:08:26.356Z,1.00
2023-01-10T00:11:47.130Z,1.37
2023-01-10T00:14:49.266Z,1.00
2023-01-10T00:17:52.527Z,0.80
2023-01-10T00:20:54.901Z,1.40
2023-01-10T00:24:00.124Z,2.20
2023-01-10T00:27:03.178Z,1.40
2023-01-10T00:30:14.339Z,1.40
2023-01-10T00:33:19.851Z,1.10
2023-01-10T00:36:22.068Z,2.77
2023-01-10T00:39:27.554Z,1.97
2023-01-10T00:42:48.324Z,2.10
2023-01-10T00:45:50.668Z,1.80
2023-01-10T00:48:53.020Z,1.43
2023-01-10T00:51:58.510Z,2.80
2023-01-10T00:55:01.372Z,2.30
2023-01-10T00:58:06.276Z,2.80
2023-01-10T01:01:08.678Z,2.50
2023-01-10T01:04:11.009Z,3.67
2023-01-10T01:07:14.206Z,3.10
2023-01-10T01:10:28.621Z,2.43
2023-01-10T01:13:30.726Z,2.80
2023-01-10T01:16:32.771Z,2.67
2023-01-10T01:19:35.120Z,3.23
2023-01-10T01:22:37.872Z,2.57
2023-01-10T01:25:40.341Z,2.87
2023-01-10T01:28:42.525Z,1.57
2023-01-10T01:31:44.685Z,2.10
2023-01-10T01:34:46.853Z,2.50
2023-01-10T01:37:49.369Z,2.57
2023-01-10T01:40:51.561Z,2.83
2023-01-10T01:44:07.228Z,2.30
2023-01-10T01:47:25.454Z,3.00
2023-01-10T01:50:36.360Z,3.20
2023-01-10T01:53:54.642Z,3.03
2023-01-10T01:57:05.949Z,1.70
2023-01-10T02:00:10.451Z,1.73
2023-01-10T02:03:15.290Z,2.13
2023-01-10T02:06:19.184Z,2.40
2023-01-10T02:09:41.363Z,3.20
2023-01-10T02:12:46.801Z,3.23
2023-01-10T02:15:49.585Z,2.47
2023-01-10T02:18:51.982Z,2.43
2023-01-10T02:21:59.964Z,4.13
2023-01-10T02:25:29.688Z,3.00
2023-01-10T02:29:06.355Z,3.20
2023-01-10T02:33:04.261Z,2.07
2023-01-10T02:36:14.494Z,2.63
2023-01-10T02:39:47.550Z,2.47
2023-01-10T02:43:07.046Z,1.80
2023-01-10T02:46:15.565Z,1.93
2023-01-10T02:49:17.708Z,3.00
2023-01-10T02:52:23.481Z,4.50
2023-01-10T02:55:34.851Z,3.03
2023-01-10T02:58:57.294Z,2.23
2023-01-10T03:02:08.536Z,3.63
2023-01-10T03:05:29.317Z,2.27
2023-01-10T03:08:49.111Z,2.83
2023-01-10T03:11:58.300Z,3.03
2023-01-10T03:15:03.625Z,2.60
2023-01-10T03:18:13.439Z,2.43
2023-01-10T03:21:19.363Z,3.47
2023-01-10T03:24:31.683Z,3.00
2023-01-10T03:27:36.844Z,2.70
2023-01-10T03:31:07.023Z,2.67
2023-01-10T03:34:09.716Z,2.47
2023-01-10T03:37:29.824Z,4.27
2023-01-10T03:40:52.346Z,2.70
2023-01-10T03:44:22.557Z,2.77
2023-01-10T03:47:45.632Z,2.67
2023-01-10T03:50:49.505Z,3.90
2023-01-10T03:53:51.916Z,3.78
2023-01-10T03:56:54.262Z,3.43
2023-01-10T03:59:58.356Z,2.63
2023-01-10T04:03:01.396Z,2.07
2023-01-10T04:06:04.461Z,3.23
2023-01-10T04:09:06.943Z,4.17
2023-01-10T04:12:09.409Z,2.97
2023-01-10T04:15:14.229Z,2.67
2023-01-10T04:18:16.483Z,3.47
2023-01-10T04:21:18.683Z,3.30
2023-01-10T04:24:20.961Z,3.17
2023-01-10T04:27:23.110Z,3.10
2023-01-10T04:30:25.269Z,3.47
2023-01-10T04:33:28.655Z,3.87
2023-01-10T04:36:30.789Z,4.00
2023-01-10T04:39:33.081Z,5.23
2023-01-10T04:42:35.474Z,6.07
2023-01-10T04:45:38.350Z,6.57
2023-01-10T04:48:42.138Z,6.57
2023-01-10T04:51:44.260Z,6.40
2023-01-10T04:54:47.795Z,5.60
2023-01-10T04:57:49.931Z,7.40
2023-01-10T05:00:52.681Z,8.07
2023-01-10T05:03:56.360Z,6.57
2023-01-10T05:06:58.709Z,7.87
2023-01-10T05:10:00.750Z,6.30
2023-01-10T05:13:02.815Z,7.87
2023-01-10T05:16:13.369Z,6.73
2023-01-10T05:19:18.647Z,8.00
2023-01-10T05:22:20.935Z,6.93
2023-01-10T05:25:24.263Z,4.80
2023-01-10T05:28:26.519Z,4.80
2023-01-10T05:31:28.945Z,8.03
2023-01-10T05:34:31.190Z,8.03
2023-01-10T05:37:33.342Z,7.47
2023-01-10T05:40:35.461Z,8.83
2023-01-10T05:43:37.877Z,8.80
2023-01-10T05:46:40.117Z,8.33
2023-01-10T05:49:42.271Z,8.83
2023-01-10T05:52:44.501Z,9.53
2023-01-10T05:55:57.470Z,11.53
2023-01-10T05:59:07.836Z,10.00
2023-01-10T06:02:14.098Z,10.02
2023-01-10T06:05:16.549Z,10.07
2023-01-10T06:08:18.738Z,8.53
2023-01-10T06:11:21.132Z,8.70
2023-01-10T06:14:23.186Z,8.83
2023-01-10T06:17:25.754Z,9.23
2023-01-10T06:20:27.861Z,8.53
2023-01-10T06:23:31.507Z,8.57
2023-01-10T06:26:33.588Z,8.07
2023-01-10T06:29:36.194Z,7.77
2023-01-10T06:32:38.363Z,8.13
2023-01-10T06:35:40.919Z,9.27
2023-01-10T06:38:43.186Z,6.87
2023-01-10T06:41:46.871Z,6.93
2023-01-10T06:44:49.131Z,7.83
2023-01-10T06:47:51.490Z,8.23
2023-01-10T06:50:53.631Z,7.80
2023-01-10T06:53:55.728Z,7.63
2023-01-10T06:56:57.823Z,7.57
2023-01-10T07:00:00.005Z,7.83
2023-01-10T07:03:02.810Z,8.30
2023-01-10T07:06:10.051Z,9.43
2023-01-10T07:09:13.146Z,7.97
2023-01-10T07:12:18.291Z,8.47
2023-01-10T07:15:20.372Z,9.30
2023-01-10T07:18:22.842Z,7.80
2023-01-10T07:21:25.235Z,9.30
2023-01-10T07:24:27.448Z,7.37
2023-01-10T07:27:32.448Z,7.83
2023-01-10T07:30:34.774Z,7.70
2023-01-10T07:33:36.921Z,7.33
2023-01-10T07:36:39.660Z,8.77
2023-01-10T07:39:42.452Z,9.70
2023-01-10T07:42:44.904Z,8.43
2023-01-10T07:45:47.289Z,10.73
2023-01-10T07:48:50.071Z,8.57
2023-01-10T07:51:52.176Z,8.53
2023-01-10T07:54:54.516Z,8.43
2023-01-10T07:57:56.709Z,8.33
2023-01-10T08:01:00.941Z,8.57
2023-01-10T08:04:03.123Z,8.23
2023-01-10T08:07:05.839Z,8.13
2023-01-10T08:10:08.859Z,7.50
2023-01-10T08:13:18.876Z,9.00
2023-01-10T08:16:21.243Z,9.33
2023-01-10T08:19:23.504Z,7.90
2023-01-10T08:22:25.545Z,7.77
2023-01-10T08:25:27.980Z,9.03
2023-01-10T08:28:30.410Z,8.27
2023-01-10T08:31:32.792Z,9.77
2023-01-10T08:34:34.955Z,10.03
2023-01-10T08:37:37.269Z,9.73
2023-01-10T08:40:39.409Z,12.77
2023-01-10T08:43:41.807Z,11.40
2023-01-10T08:46:44.284Z,11.70
2023-01-10T08:49:49.886Z,12.53
2023-01-10T08:52:52.294Z,12.53
2023-01-10T08:55:54.349Z,10.97
2023-01-10T08:58:56.608Z,12.20
2023-01-10T09:02:00.164Z,12.23
2023-01-10T09:05:02.285Z,11.80
2023-01-10T09:08:04.578Z,11.63
2023-01-10T09:11:07.359Z,12.10
2023-01-10T09:14:09.531Z,11.67
2023-01-10T09:17:11.661Z,15.13
2023-01-10T09:20:13.943Z,9.57
2023-01-10T09:23:20.188Z,12.13
2023-01-10T09:26:22.605Z,11.37
2023-01-10T09:29:24.675Z,13.57
2023-01-10T09:32:26.968Z,12.70
2023-01-10T09:35:30.707Z,10.17
2023-01-10T09:38:33.115Z,8.68
2023-01-10T09:41:59.520Z,9.23
2023-01-10T09:45:23.635Z,7.80
2023-01-10T09:49:00.425Z,7.30
2023-01-10T09:52:08.817Z,9.37
2023-01-10T09:55:28.109Z,9.53
2023-01-10T09:58:34.405Z,9.60
2023-01-10T10:01:37.029Z,9.73
2023-01-10T10:04:40.944Z,9.07
2023-01-10T10:07:43.102Z,9.27
2023-01-10T10:11:11.352Z,9.40
2023-01-10T10:14:50.601Z,8.17
2023-01-10T10:18:14.094Z,8.03
2023-01-10T10:21:23.586Z,7.03
2023-01-10T10:24:41.680Z,7.87
2023-01-10T10:28:14.088Z,8.27
2023-01-10T10:32:07.256Z,9.17
2023-01-10T10:35:31.895Z,7.17
2023-01-10T10:38:39.169Z,9.13
2023-01-10T10:41:45.031Z,8.17
2023-01-10T10:44:55.499Z,8.97
2023-01-10T10:48:05.522Z,7.47
2023-01-10T10:51:08.988Z,7.07
2023-01-10T10:54:14.038Z,9.17
2023-01-10T10:57:16.983Z,11.10
2023-01-10T11:00:22.515Z,7.50
2023-01-10T11:04:06.892Z,4.90
2023-01-10T11:07:15.582Z,4.80
2023-01-10T11:10:36.170Z,5.77
2023-01-10T11:14:05.966Z,5.13
2023-01-10T11:17:30.888Z,5.07
2023-01-10T11:20:34.786Z,4.47
2023-01-10T11:23:56.247Z,4.40
2023-01-10T11:27:02.190Z,4.78
2023-01-10T11:30:09.388Z,4.80
2023-01-10T11:33:21.850Z,4.43
2023-01-10T11:36:24.436Z,4.32
2023-01-10T11:39:28.226Z,4.27
2023-01-10T11:42:31.200Z,4.33
2023-01-10T11:45:36.261Z,4.80
2023-01-10T11:49:05.655Z,4.07
2023-01-10T11:52:32.652Z,4.00
2023-01-10T11:55:38.342Z,3.72
2023-01-10T11:58:42.763Z,3.30
2023-01-10T12:02:12.240Z,4.00
2023-01-10T12:05:21.364Z,2.60
2023-01-10T12:08:29.874Z,2.78
2023-01-10T12:11:35.772Z,2.45
2023-01-10T12:14:37.892Z,2.92
2023-01-10T12:17:40.057Z,1.83
2023-01-10T12:20:51.147Z,1.67
2023-01-10T12:23:58.747Z,2.55
2023-01-10T12:27:03.781Z,2.78
2023-01-10T12:30:16.653Z,2.50
2023-01-10T12:33:31.286Z,1.88
2023-01-10T12:40:09.809Z,1.90
2023-01-10T12:43:45.943Z,1.15
2023-01-10T12:47:13.981Z,1.10
2023-01-10T12:50:22.089Z,2.85
2023-01-10T12:53:43.657Z,1.80
2023-01-10T12:56:48.129Z,2.58
2023-01-10T12:59:50.795Z,2.15
2023-01-10T13:02:59.277Z,1.70
2023-01-10T13:06:02.449Z,1.17
2023-01-10T13:09:13.564Z,0.82
2023-01-10T13:12:20.663Z,1.02
2023-01-10T13:15:52.714Z,1.38
2023-01-10T13:19:21.464Z,1.65
2023-01-10T13:22:24.302Z,1.50
2023-01-10T13:25:35.068Z,0.82
2023-01-10T13:29:01.633Z,1.52
2023-01-10T13:32:27.075Z,1.27
2023-01-10T13:35:39.839Z,1.33
2023-01-10T13:38:44.746Z,1.40
2023-01-10T13:43:00.509Z,0.90
2023-01-10T13:46:31.912Z,1.45
2023-01-10T13:49:42.873Z,0.88
2023-01-10T13:52:45.106Z,1.90
2023-01-10T13:55:53.533Z,0.93
2023-01-10T13:59:14.530Z,0.90
2023-01-10T14:02:34.400Z,1.20
2023-01-10T14:05:36.798Z,1.55
2023-01-10T14:08:39.841Z,1.45
2023-01-10T14:11:45.142Z,0.75
2023-01-10T14:15:06.438Z,0.90
2023-01-10T14:18:39.298Z,1.23
2023-01-10T14:21:45.587Z,1.38
2023-01-10T14:24:52.925Z,1.25
2023-01-10T14:27:56.815Z,1.30
2023-01-10T14:30:59.006Z,2.15
2023-01-10T14:34:03.185Z,2.00
2023-01-10T14:40:32.328Z,1.33
2023-01-10T14:43:43.549Z,1.27
2023-01-10T14:47:01.396Z,1.33
2023-01-10T14:50:05.041Z,2.22
2023-01-10T14:53:25.155Z,2.42
2023-01-10T14:56:31.229Z,1.52
2023-01-10T14:59:36.335Z,1.60
2023-01-10T15:02:43.829Z,2.08
2023-01-10T15:05:50.108Z,1.17
2023-01-10T15:09:00.100Z,0.50
2023-01-10T15:12:08.239Z,1.52
2023-01-10T15:15:17.598Z,0.77
2023-01-10T15:18:28.655Z,1.52
2023-01-10T15:21:31.073Z,0.60
2023-01-10T15:24:37.633Z,0.70
2023-01-10T15:27:46.990Z,2.08
2023-01-10T15:30:49.524Z,1.83
2023-01-10T15:33:56.803Z,2.30
2023-01-10T15:37:01.583Z,7.65
2023-01-10T15:40:07.677Z,3.60
2023-01-10T15:43:23.736Z,3.22
2023-01-10T15:46:27.196Z,1.75
2023-01-10T15:49:30.556Z,1.10
2023-01-10T15:52:32.733Z,2.10
2023-01-10T15:55:40.883Z,1.20
2023-01-10T15:58:43.638Z,2.13
2023-01-10T16:01:59.023Z,0.68
2023-01-10T16:05:07.439Z,1.08
2023-01-10T16:08:10.423Z,3.53
2023-01-10T16:11:52.149Z,1.70
2023-01-10T16:14:54.250Z,1.80
2023-01-10T16:17:56.652Z,2.13
2023-01-10T16:21:03.071Z,1.38
2023-01-10T16:24:06.024Z,1.10
2023-01-10T16:27:08.432Z,0.98
2023-01-10T16:30:26.767Z,1.40
2023-01-10T16:33:29.663Z,2.03
2023-01-10T16:36:32.151Z,1.83
2023-01-10T16:39:35.059Z,2.15
2023-01-10T16:42:55.562Z,2.28
2023-01-10T16:46:03.910Z,2.47
2023-01-10T16:49:07.843Z,2.42
2023-01-10T16:52:14.789Z,2.63
2023-01-10T16:55:20.467Z,2.20
2023-01-10T16:58:22.811Z,1.90
2023-01-10T17:01:31.366Z,1.48
2023-01-10T17:04:45.112Z,1.10
2023-01-10T17:07:47.246Z,0.93
2023-01-10T17:11:21.810Z,1.02
2023-01-10T17:14:24.116Z,1.42
2023-01-10T17:17:29.107Z,1.75
2023-01-10T17:20:31.360Z,1.85
2023-01-10T17:23:33.589Z,2.00
2023-01-10T17:26:36.299Z,2.20
2023-01-10T17:29:38.693Z,2.27
2023-01-10T17:32:41.306Z,1.53
2023-01-10T17:35:45.137Z,1.40
2023-01-10T17:38:47.450Z,1.67
2023-01-10T17:41:49.553Z,1.20
2023-01-10T17:44:51.766Z,3.87
2023-01-10T17:47:54.041Z,2.87
2023-01-10T17:50:58.898Z,3.30
2023-01-10T17:57:05.000Z,5.00
2023-01-10T18:00:08.044Z,5.57
2023-01-10T18:03:10.431Z,7.33
2023-01-10T18:06:23.255Z,7.57
2023-01-10T18:09:26.311Z,3.90
2023-01-10T18:12:28.404Z,4.53
2023-01-10T18:15:30.617Z,5.73
2023-01-10T18:18:32.860Z,3.73
2023-01-10T18:21:35.291Z,2.87
2023-01-10T18:24:37.433Z,3.53
2023-01-10T18:27:42.868Z,3.93
2023-01-10T18:30:47.689Z,3.20
2023-01-10T18:33:50.511Z,3.23
2023-01-10T18:36:53.987Z,3.43
2023-01-10T18:39:56.544Z,2.30
2023-01-10T18:42:59.158Z,2.70
2023-01-10T18:46:12.267Z,3.10
2023-01-10T18:49:14.501Z,4.33
2023-01-10T18:52:16.910Z,2.77
2023-01-10T18:55:19.874Z,2.67
2023-01-10T18:58:33.996Z,3.67
2023-01-10T19:01:36.585Z,3.20
2023-01-10T19:04:41.898Z,4.87
2023-01-10T19:07:44.108Z,4.77
2023-01-10T19:11:11.434Z,4.23
2023-01-10T19:14:08.377Z,4.27
2023-01-10T19:17:10.862Z,2.60
2023-01-10T19:20:13.129Z,3.57
2023-01-10T19:23:15.356Z,3.77
2023-01-10T19:26:18.475Z,3.60
2023-01-10T19:29:20.811Z,4.13
2023-01-10T19:32:23.018Z,3.67
2023-01-10T19:35:25.063Z,4.00
2023-01-10T19:38:27.631Z,4.60
2023-01-10T19:41:30.229Z,4.20
2023-01-10T19:44:33.024Z,4.60
2023-01-10T19:47:35.183Z,3.43
2023-01-10T19:50:38.118Z,4.77
2023-01-10T19:53:46.641Z,3.93
2023-01-10T19:56:49.001Z,4.30
2023-01-10T19:59:53.790Z,4.30
2023-01-10T20:02:57.612Z,3.93
2023-01-10T20:06:04.756Z,3.90
2023-01-10T20:09:08.257Z,2.47
2023-01-10T20:12:10.462Z,1.40
2023-01-10T20:15:12.690Z,2.77
2023-01-10T20:18:17.298Z,2.43
2023-01-10T20:21:20.167Z,2.63
2023-01-10T20:24:22.496Z,2.20
2023-01-10T20:27:25.727Z,2.30
2023-01-10T20:30:27.906Z,2.40
2023-01-10T20:33:30.951Z,2.67
2023-01-10T20:36:34.166Z,2.85
2023-01-10T20:39:36.903Z,2.27
2023-01-10T20:42:40.812Z,2.80
2023-01-10T20:45:43.150Z,2.50
2023-01-10T20:48:46.597Z,2.17
2023-01-10T20:51:50.138Z,3.43
2023-01-10T20:54:52.342Z,3.33
2023-01-10T20:57:54.501Z,2.63
2023-01-10T21:00:56.540Z,3.50
2023-01-10T21:03:59.648Z,3.80
2023-01-10T21:07:02.161Z,3.90
2023-01-10T21:10:04.716Z,2.83
2023-01-10T21:13:06.917Z,3.10
2023-01-10T21:16:12.062Z,3.43
2023-01-10T21:19:15.920Z,6.97
2023-01-10T21:22:18.097Z,4.20
2023-01-10T21:25:20.141Z,4.00
2023-01-10T21:28:22.188Z,3.90
2023-01-10T21:31:24.626Z,3.80
2023-01-10T21:34:27.364Z,4.20
2023-01-10T21:37:31.192Z,3.75
2023-01-10T21:40:34.495Z,3.70
2023-01-10T21:43:36.941Z,4.17
2023-01-10T21:46:39.048Z,4.57
2023-01-10T21:49:41.091Z,6.00
2023-01-10T21:52:43.769Z,4.30
2023-01-10T21:55:45.953Z,4.60
2023-01-10T21:58:48.308Z,3.93
2023-01-10T22:01:50.410Z,4.03
2023-01-10T22:04:54.205Z,4.47
2023-01-10T22:07:58.653Z,4.70
2023-01-10T22:11:00.771Z,5.37
2023-01-10T22:14:02.817Z,3.87
2023-01-10T22:17:05.224Z,5.17
2023-01-10T22:20:08.518Z,4.30
2023-01-10T22:23:10.647Z,4.63
2023-01-10T22:26:16.137Z,5.33
2023-01-10T22:29:20.526Z,5.33
2023-01-10T22:32:22.849Z,5.88
2023-01-10T22:35:27.898Z,7.20
2023-01-10T22:38:32.788Z,5.87
2023-01-10T22:44:37.604Z,5.57
2023-01-10T22:47:39.683Z,6.37
2023-01-10T22:50:49.155Z,6.20
2023-01-10T22:53:56.782Z,6.40
2023-01-10T22:56:59.176Z,5.57
2023-01-10T23:00:01.326Z,4.73
2023-01-10T23:03:03.539Z,4.27
2023-01-10T23:06:06.998Z,5.33
2023-01-10T23:09:09.424Z,6.17
2023-01-10T23:12:11.539Z,6.07
2023-01-10T23:15:13.870Z,4.40
2023-01-10T23:18:16.935Z,4.43
2023-01-10T23:21:19.673Z,4.37
2023-01-10T23:24:21.810Z,4.50
2023-01-10T23:27:24.022Z,3.33
2023-01-10T23:30:26.888Z,3.43
2023-01-10T23:33:30.329Z,3.77
2023-01-10T23:36:32.709Z,4.60
2023-01-10T23:39:34.755Z,3.70
2023-01-10T23:42:36.879Z,3.90
2023-01-10T23:45:42.595Z,4.60
2023-01-10T23:48:46.566Z,2.93
2023-01-10T23:51:48.698Z,3.07
2023-01-10T23:54:50.906Z,3.97
2023-01-10T23:57:53.113Z,3.20
